FBW456 LOWW-WSSS
Flight info
| Callsign | FBW456 |
|---|---|
| Flight time | N/A |
| Altitude | 40000 |
| Route | LOWW/29 N0500F400 ASPI2C ADAMA DCT VEDER DCT ALAMU DCT EPARI DCT LUVEL DCT AGMEL DCT SOKRU DCT OPT DCT LUGEB DCT UDROS DCT CRM DCT ROLIN N644 LAGAS M747 LUSAL M11 RODAR A909 NINOP B801 RANAH L750 ZB G202 RK P628 IBANI L510 GIVAL P628 VPL Y503 RINBA Y507 MAKNA Y511 TOPOR A464 ARAMA DCT TEBUN TEBU1A WSSS/02L |
| Aircraft | A380/J-V/N |
Departure
| Time | 2026-05-01 10:34 |
|---|---|
| Airport | Vienna International Airport (LOWW) |
Arrival
| Time | N/A |
|---|---|
| Airport | Singapore Changi Airport (WSSS) |
| Time | Latitude | Longitude | Altitude | Speed | Heading |
|---|---|---|---|---|---|
| 2026-05-01 10:20 | 48.11524 | 16.57311 | 613 ft | 0 kts | 22° |
| 2026-05-01 10:26 | 48.11526 | 16.57312 | 613 ft | 1 kts | 22° |
| 2026-05-01 10:26 | 48.11580 | 16.57358 | 627 ft | 5 kts | 66° |
| 2026-05-01 10:27 | 48.11570 | 16.57433 | 625 ft | 5 kts | 129° |
| 2026-05-01 10:27 | 48.11510 | 16.57467 | 612 ft | 4 kts | 202° |
| 2026-05-01 10:28 | 48.11483 | 16.57445 | 617 ft | 4 kts | 200° |
| 2026-05-01 10:28 | 48.11429 | 16.57411 | 628 ft | 4 kts | 204° |
| 2026-05-01 10:28 | 48.11403 | 16.57395 | 627 ft | 4 kts | 202° |
| 2026-05-01 10:29 | 48.11374 | 16.57378 | 632 ft | 2 kts | 201° |
| 2026-05-01 10:29 | 48.11354 | 16.57365 | 631 ft | 4 kts | 205° |
| 2026-05-01 10:30 | 48.11252 | 16.57289 | 633 ft | 12 kts | 204° |
| 2026-05-01 10:30 | 48.11153 | 16.57424 | 632 ft | 13 kts | 134° |
| 2026-05-01 10:31 | 48.11067 | 16.57602 | 633 ft | 5 kts | 180° |
| 2026-05-01 10:31 | 48.11047 | 16.57595 | 633 ft | 4 kts | 192° |
| 2026-05-01 10:32 | 48.10932 | 16.57504 | 630 ft | 8 kts | 266° |
| 2026-05-01 10:32 | 48.10937 | 16.57473 | 629 ft | 0 kts | 292° |
| 2026-05-01 10:33 | 48.11305 | 16.56529 | 630 ft | 103 kts | 303° |
| 2026-05-01 10:33 | 48.12103 | 16.54066 | 699 ft | 151 kts | 291° |
| 2026-05-01 10:34 | 48.12447 | 16.52604 | 1119 ft | 160 kts | 282° |
| 2026-05-01 10:34 | 48.12225 | 16.50814 | 1116 ft | 197 kts | 235° |
| 2026-05-01 10:34 | 48.10987 | 16.49774 | 1402 ft | 219 kts | 180° |
| 2026-05-01 10:35 | 48.08289 | 16.49309 | 3109 ft | 197 kts | 190° |
| 2026-05-01 10:35 | 48.06799 | 16.48945 | 3247 ft | 230 kts | 186° |
| 2026-05-01 10:35 | 48.05151 | 16.49155 | 3737 ft | 245 kts | 159° |
| 2026-05-01 10:35 | 48.03649 | 16.50355 | 4520 ft | 248 kts | 143° |
| 2026-05-01 10:36 | 48.00565 | 16.53271 | 5754 ft | 268 kts | 144° |
| 2026-05-01 10:36 | 47.98961 | 16.54745 | 6351 ft | 273 kts | 144° |
| 2026-05-01 10:36 | 47.97360 | 16.56283 | 6942 ft | 274 kts | 135° |
| 2026-05-01 10:37 | 47.96224 | 16.58485 | 7526 ft | 266 kts | 108° |
| 2026-05-01 10:37 | 47.96406 | 16.63674 | 8730 ft | 258 kts | 66° |
| 2026-05-01 10:37 | 47.97048 | 16.66187 | 9382 ft | 260 kts | 67° |
| 2026-05-01 10:38 | 47.97661 | 16.68740 | 10024 ft | 262 kts | 68° |
| 2026-05-01 10:38 | 47.98257 | 16.71309 | 10632 ft | 264 kts | 68° |
| 2026-05-01 10:38 | 47.98872 | 16.73983 | 10801 ft | 281 kts | 68° |
| 2026-05-01 10:38 | 47.99478 | 16.76854 | 10935 ft | 298 kts | 73° |
| 2026-05-01 10:39 | 47.99835 | 16.79988 | 11139 ft | 313 kts | 82° |
| 2026-05-01 10:39 | 47.99989 | 16.83264 | 11628 ft | 316 kts | 82° |
| 2026-05-01 10:39 | 48.00164 | 16.86545 | 12150 ft | 318 kts | 81° |
| 2026-05-01 10:39 | 48.00353 | 16.89855 | 12652 ft | 321 kts | 81° |
| 2026-05-01 10:40 | 48.00545 | 16.93191 | 13149 ft | 324 kts | 81° |
| 2026-05-01 10:40 | 48.00735 | 16.96513 | 13655 ft | 326 kts | 81° |
| 2026-05-01 10:40 | 48.00925 | 16.99894 | 14168 ft | 328 kts | 81° |
| 2026-05-01 10:40 | 48.01069 | 17.03315 | 14616 ft | 333 kts | 85° |
| 2026-05-01 10:41 | 48.00919 | 17.06788 | 15090 ft | 337 kts | 92° |
| 2026-05-01 10:41 | 48.00627 | 17.10269 | 15550 ft | 339 kts | 92° |
| 2026-05-01 10:41 | 48.00083 | 17.17310 | 16458 ft | 342 kts | 91° |
| 2026-05-01 10:42 | 47.99811 | 17.20865 | 16893 ft | 345 kts | 91° |
| 2026-05-01 10:42 | 47.99537 | 17.24433 | 17357 ft | 347 kts | 91° |
| 2026-05-01 10:42 | 47.99264 | 17.27973 | 17801 ft | 349 kts | 91° |
| 2026-05-01 10:42 | 47.98983 | 17.31584 | 18196 ft | 352 kts | 92° |
| 2026-05-01 10:43 | 47.98536 | 17.35207 | 18620 ft | 358 kts | 99° |
| 2026-05-01 10:43 | 47.97781 | 17.38785 | 19009 ft | 362 kts | 103° |
| 2026-05-01 10:43 | 47.96981 | 17.42357 | 19408 ft | 362 kts | 102° |
| 2026-05-01 10:43 | 47.96197 | 17.45921 | 19824 ft | 362 kts | 102° |
| 2026-05-01 10:44 | 47.95411 | 17.49512 | 20200 ft | 364 kts | 102° |
| 2026-05-01 10:44 | 47.94634 | 17.53065 | 20565 ft | 365 kts | 102° |
| 2026-05-01 10:44 | 47.93842 | 17.56672 | 20949 ft | 366 kts | 102° |
| 2026-05-01 10:44 | 47.93047 | 17.60284 | 21297 ft | 368 kts | 102° |
| 2026-05-01 10:45 | 47.92246 | 17.63911 | 21696 ft | 369 kts | 102° |
| 2026-05-01 10:45 | 47.91440 | 17.67554 | 22075 ft | 370 kts | 102° |
| 2026-05-01 10:45 | 47.90630 | 17.71211 | 22417 ft | 371 kts | 102° |
| 2026-05-01 10:45 | 47.89818 | 17.74874 | 22771 ft | 373 kts | 102° |
| 2026-05-01 10:46 | 47.89001 | 17.78547 | 23128 ft | 374 kts | 102° |
| 2026-05-01 10:46 | 47.88179 | 17.82240 | 23471 ft | 376 kts | 102° |
| 2026-05-01 10:46 | 47.87353 | 17.85943 | 23812 ft | 377 kts | 102° |
| 2026-05-01 10:46 | 47.86523 | 17.89658 | 24131 ft | 378 kts | 102° |
| 2026-05-01 10:47 | 47.85700 | 17.93333 | 24400 ft | 380 kts | 102° |
| 2026-05-01 10:47 | 47.84858 | 17.97068 | 24675 ft | 382 kts | 103° |
| 2026-05-01 10:47 | 47.83822 | 18.00745 | 24943 ft | 388 kts | 108° |
| 2026-05-01 10:47 | 47.82664 | 18.04393 | 25267 ft | 389 kts | 108° |
| 2026-05-01 10:48 | 47.81519 | 18.08046 | 25553 ft | 391 kts | 107° |
| 2026-05-01 10:48 | 47.80372 | 18.11719 | 25838 ft | 392 kts | 107° |
| 2026-05-01 10:48 | 47.79217 | 18.15419 | 26134 ft | 394 kts | 107° |
| 2026-05-01 10:48 | 47.78055 | 18.19132 | 26436 ft | 396 kts | 107° |
| 2026-05-01 10:49 | 47.76890 | 18.22848 | 26747 ft | 398 kts | 107° |
| 2026-05-01 10:49 | 47.75716 | 18.26584 | 27059 ft | 400 kts | 107° |
| 2026-05-01 10:49 | 47.74603 | 18.30362 | 27375 ft | 397 kts | 103° |
| 2026-05-01 10:49 | 47.73796 | 18.34209 | 27698 ft | 394 kts | 96° |
| 2026-05-01 10:50 | 47.73282 | 18.38192 | 28024 ft | 390 kts | 91° |
| 2026-05-01 10:50 | 47.72994 | 18.42195 | 28464 ft | 389 kts | 89° |
| 2026-05-01 10:50 | 47.72702 | 18.46204 | 28830 ft | 391 kts | 89° |
| 2026-05-01 10:50 | 47.72398 | 18.50234 | 29122 ft | 394 kts | 90° |
| 2026-05-01 10:51 | 47.72084 | 18.54299 | 29513 ft | 396 kts | 90° |
| 2026-05-01 10:51 | 47.71769 | 18.58365 | 29829 ft | 398 kts | 90° |
| 2026-05-01 10:51 | 47.71450 | 18.62466 | 30141 ft | 401 kts | 90° |
| 2026-05-01 10:51 | 47.71128 | 18.66586 | 30483 ft | 403 kts | 90° |
| 2026-05-01 10:52 | 47.70803 | 18.70718 | 30792 ft | 404 kts | 90° |
| 2026-05-01 10:52 | 47.70476 | 18.74868 | 31141 ft | 405 kts | 90° |
| 2026-05-01 10:52 | 47.70148 | 18.79021 | 31436 ft | 407 kts | 90° |
| 2026-05-01 10:52 | 47.69816 | 18.83205 | 31747 ft | 408 kts | 89° |
| 2026-05-01 10:53 | 47.69481 | 18.87393 | 32025 ft | 410 kts | 89° |
| 2026-05-01 10:53 | 47.69137 | 18.91557 | 32368 ft | 412 kts | 91° |
| 2026-05-01 10:53 | 47.68553 | 18.95754 | 32622 ft | 420 kts | 97° |
| 2026-05-01 10:53 | 47.67627 | 18.99907 | 32855 ft | 428 kts | 103° |
| 2026-05-01 10:54 | 47.66361 | 19.03963 | 33128 ft | 438 kts | 110° |
| 2026-05-01 10:54 | 47.64853 | 19.07926 | 33391 ft | 441 kts | 110° |
| 2026-05-01 10:54 | 47.63348 | 19.11910 | 33664 ft | 443 kts | 110° |
| 2026-05-01 10:54 | 47.61849 | 19.15906 | 33953 ft | 444 kts | 110° |
| 2026-05-01 10:55 | 47.60345 | 19.19918 | 34279 ft | 446 kts | 110° |
| 2026-05-01 10:55 | 47.58840 | 19.23920 | 34625 ft | 445 kts | 110° |
| 2026-05-01 10:55 | 47.57319 | 19.27962 | 34729 ft | 450 kts | 110° |
| 2026-05-01 10:55 | 47.55790 | 19.32018 | 34929 ft | 453 kts | 110° |
| 2026-05-01 10:56 | 47.54266 | 19.36048 | 35120 ft | 456 kts | 110° |
| 2026-05-01 10:56 | 47.52709 | 19.40158 | 35349 ft | 457 kts | 111° |
| 2026-05-01 10:56 | 47.51152 | 19.44261 | 35588 ft | 459 kts | 111° |
| 2026-05-01 10:56 | 47.49583 | 19.48387 | 35807 ft | 461 kts | 111° |
| 2026-05-01 10:57 | 47.48006 | 19.52531 | 36051 ft | 462 kts | 111° |
| 2026-05-01 10:57 | 47.46428 | 19.56668 | 36300 ft | 463 kts | 111° |
| 2026-05-01 10:57 | 47.44843 | 19.60820 | 36520 ft | 464 kts | 111° |
| 2026-05-01 10:57 | 47.43251 | 19.64983 | 36728 ft | 466 kts | 112° |
| 2026-05-01 10:58 | 47.41648 | 19.69170 | 36927 ft | 467 kts | 112° |
| 2026-05-01 10:58 | 47.40044 | 19.73351 | 37161 ft | 468 kts | 112° |
| 2026-05-01 10:58 | 47.38435 | 19.77540 | 37363 ft | 470 kts | 112° |
| 2026-05-01 10:58 | 47.36817 | 19.81746 | 37571 ft | 471 kts | 112° |
| 2026-05-01 10:59 | 47.35196 | 19.85952 | 37780 ft | 472 kts | 112° |
| 2026-05-01 10:59 | 47.33567 | 19.90171 | 37984 ft | 474 kts | 113° |
| 2026-05-01 10:59 | 47.31933 | 19.94401 | 38158 ft | 476 kts | 114° |
| 2026-05-01 10:59 | 47.30288 | 19.98649 | 38365 ft | 477 kts | 114° |
| 2026-05-01 11:00 | 47.28639 | 20.02900 | 38564 ft | 478 kts | 114° |
| 2026-05-01 11:00 | 47.26988 | 20.07149 | 38754 ft | 479 kts | 114° |
| 2026-05-01 11:00 | 47.25327 | 20.11418 | 38946 ft | 480 kts | 114° |
| 2026-05-01 11:00 | 47.23682 | 20.15638 | 39079 ft | 482 kts | 114° |
| 2026-05-01 11:01 | 47.22012 | 20.19920 | 39200 ft | 484 kts | 115° |
| 2026-05-01 11:01 | 47.20332 | 20.24218 | 39334 ft | 485 kts | 115° |
| 2026-05-01 11:01 | 47.18644 | 20.28534 | 39393 ft | 488 kts | 115° |
| 2026-05-01 11:01 | 47.16946 | 20.32862 | 39531 ft | 489 kts | 115° |
| 2026-05-01 11:02 | 47.15239 | 20.37208 | 39661 ft | 491 kts | 115° |
| 2026-05-01 11:02 | 47.13524 | 20.41567 | 39762 ft | 493 kts | 115° |
| 2026-05-01 11:02 | 47.11805 | 20.45928 | 39883 ft | 494 kts | 115° |
| 2026-05-01 11:03 | 47.08345 | 20.54688 | 40080 ft | 497 kts | 116° |
| 2026-05-01 11:03 | 47.06606 | 20.59081 | 40205 ft | 499 kts | 116° |
| 2026-05-01 11:03 | 47.04857 | 20.63491 | 40310 ft | 500 kts | 116° |
| 2026-05-01 11:04 | 47.01329 | 20.72366 | 40327 ft | 504 kts | 116° |
| 2026-05-01 11:04 | 46.97831 | 20.81130 | 40344 ft | 501 kts | 116° |
| 2026-05-01 11:05 | 46.94302 | 20.89952 | 40359 ft | 502 kts | 116° |